sensor_id;sensor_type;location;lat;lon;timestamp;P1;durP1;ratioP1;P2;durP2;ratioP2
41343;SDS011;27089;50.022;7.604;2023-07-31T00:01:57;4.37;;;2.30;;
41343;SDS011;27089;50.022;7.604;2023-07-31T00:04:24;5.37;;;1.93;;
41343;SDS011;27089;50.022;7.604;2023-07-31T00:06:52;6.13;;;2.20;;
41343;SDS011;27089;50.022;7.604;2023-07-31T00:09:19;6.60;;;2.23;;
41343;SDS011;27089;50.022;7.604;2023-07-31T00:11:46;5.00;;;2.17;;
41343;SDS011;27089;50.022;7.604;2023-07-31T00:14:13;5.97;;;2.47;;
41343;SDS011;27089;50.022;7.604;2023-07-31T00:16:40;6.37;;;2.50;;
41343;SDS011;27089;50.022;7.604;2023-07-31T00:19:07;4.13;;;2.10;;
41343;SDS011;27089;50.022;7.604;2023-07-31T00:21:34;6.13;;;2.00;;
41343;SDS011;27089;50.022;7.604;2023-07-31T00:24:02;4.37;;;2.03;;
41343;SDS011;27089;50.022;7.604;2023-07-31T00:26:29;4.90;;;2.50;;
41343;SDS011;27089;50.022;7.604;2023-07-31T00:28:56;7.70;;;2.60;;
41343;SDS011;27089;50.022;7.604;2023-07-31T00:31:23;8.13;;;2.37;;
41343;SDS011;27089;50.022;7.604;2023-07-31T00:33:50;3.03;;;2.00;;
41343;SDS011;27089;50.022;7.604;2023-07-31T00:36:17;6.30;;;2.20;;
41343;SDS011;27089;50.022;7.604;2023-07-31T00:38:44;3.73;;;2.20;;
41343;SDS011;27089;50.022;7.604;2023-07-31T00:41:12;8.07;;;2.80;;
41343;SDS011;27089;50.022;7.604;2023-07-31T00:43:39;5.27;;;2.40;;
41343;SDS011;27089;50.022;7.604;2023-07-31T00:46:06;3.47;;;2.27;;
41343;SDS011;27089;50.022;7.604;2023-07-31T00:48:33;5.20;;;2.20;;
41343;SDS011;27089;50.022;7.604;2023-07-31T00:51:01;6.67;;;2.20;;
41343;SDS011;27089;50.022;7.604;2023-07-31T00:53:28;4.60;;;2.10;;
41343;SDS011;27089;50.022;7.604;2023-07-31T00:55:55;4.50;;;2.20;;
41343;SDS011;27089;50.022;7.604;2023-07-31T00:58:24;6.87;;;2.30;;
41343;SDS011;27089;50.022;7.604;2023-07-31T01:00:51;7.43;;;2.60;;
41343;SDS011;27089;50.022;7.604;2023-07-31T01:03:18;3.83;;;2.10;;
41343;SDS011;27089;50.022;7.604;2023-07-31T01:05:47;8.00;;;2.30;;
41343;SDS011;27089;50.022;7.604;2023-07-31T01:08:22;4.70;;;2.40;;
41343;SDS011;27089;50.022;7.604;2023-07-31T01:10:56;5.60;;;2.40;;
41343;SDS011;27089;50.022;7.604;2023-07-31T01:13:28;5.53;;;2.43;;
41343;SDS011;27089;50.022;7.604;2023-07-31T01:15:55;5.20;;;2.40;;
41343;SDS011;27089;50.022;7.604;2023-07-31T01:18:22;3.90;;;2.20;;
41343;SDS011;27089;50.022;7.604;2023-07-31T01:20:52;4.53;;;2.37;;
41343;SDS011;27089;50.022;7.604;2023-07-31T01:23:35;4.50;;;2.30;;
41343;SDS011;27089;50.022;7.604;2023-07-31T01:26:19;3.90;;;2.20;;
41343;SDS011;27089;50.022;7.604;2023-07-31T01:28:52;3.57;;;2.07;;
41343;SDS011;27089;50.022;7.604;2023-07-31T01:31:23;6.43;;;2.80;;
41343;SDS011;27089;50.022;7.604;2023-07-31T01:33:53;5.10;;;2.30;;
41343;SDS011;27089;50.022;7.604;2023-07-31T01:36:21;4.20;;;2.23;;
41343;SDS011;27089;50.022;7.604;2023-07-31T01:38:48;5.93;;;2.20;;
41343;SDS011;27089;50.022;7.604;2023-07-31T01:41:16;5.87;;;2.17;;
41343;SDS011;27089;50.022;7.604;2023-07-31T01:43:44;5.77;;;2.00;;
41343;SDS011;27089;50.022;7.604;2023-07-31T01:46:12;5.80;;;2.20;;
41343;SDS011;27089;50.022;7.604;2023-07-31T01:48:39;7.90;;;2.23;;
41343;SDS011;27089;50.022;7.604;2023-07-31T01:51:05;6.93;;;2.50;;
41343;SDS011;27089;50.022;7.604;2023-07-31T01:53:32;6.63;;;2.17;;
41343;SDS011;27089;50.022;7.604;2023-07-31T01:55:59;8.43;;;2.33;;
41343;SDS011;27089;50.022;7.604;2023-07-31T01:58:26;5.77;;;2.13;;
41343;SDS011;27089;50.022;7.604;2023-07-31T02:00:55;4.07;;;2.27;;
41343;SDS011;27089;50.022;7.604;2023-07-31T02:03:22;4.27;;;1.93;;
41343;SDS011;27089;50.022;7.604;2023-07-31T02:05:49;4.53;;;1.93;;
41343;SDS011;27089;50.022;7.604;2023-07-31T02:08:16;3.80;;;1.80;;
41343;SDS011;27089;50.022;7.604;2023-07-31T02:10:43;3.63;;;2.10;;
41343;SDS011;27089;50.022;7.604;2023-07-31T02:13:10;5.30;;;2.40;;
41343;SDS011;27089;50.022;7.604;2023-07-31T02:15:37;4.90;;;2.80;;
41343;SDS011;27089;50.022;7.604;2023-07-31T02:18:06;4.53;;;2.63;;
41343;SDS011;27089;50.022;7.604;2023-07-31T02:20:33;4.33;;;2.00;;
41343;SDS011;27089;50.022;7.604;2023-07-31T02:23:01;4.27;;;2.20;;
41343;SDS011;27089;50.022;7.604;2023-07-31T02:25:28;4.10;;;2.20;;
41343;SDS011;27089;50.022;7.604;2023-07-31T02:27:55;4.97;;;2.37;;
41343;SDS011;27089;50.022;7.604;2023-07-31T02:30:22;5.13;;;2.57;;
41343;SDS011;27089;50.022;7.604;2023-07-31T02:32:49;4.30;;;2.40;;
41343;SDS011;27089;50.022;7.604;2023-07-31T02:35:18;5.53;;;2.63;;
41343;SDS011;27089;50.022;7.604;2023-07-31T02:37:45;7.83;;;2.53;;
41343;SDS011;27089;50.022;7.604;2023-07-31T02:40:12;3.37;;;2.17;;
41343;SDS011;27089;50.022;7.604;2023-07-31T02:42:39;7.40;;;2.80;;
41343;SDS011;27089;50.022;7.604;2023-07-31T02:45:06;3.83;;;2.50;;
41343;SDS011;27089;50.022;7.604;2023-07-31T02:47:34;3.70;;;2.33;;
41343;SDS011;27089;50.022;7.604;2023-07-31T02:50:01;4.97;;;2.60;;
41343;SDS011;27089;50.022;7.604;2023-07-31T02:52:30;7.30;;;2.97;;
41343;SDS011;27089;50.022;7.604;2023-07-31T02:54:57;6.97;;;2.60;;
41343;SDS011;27089;50.022;7.604;2023-07-31T02:57:24;6.43;;;2.60;;
41343;SDS011;27089;50.022;7.604;2023-07-31T02:59:51;3.77;;;2.43;;
41343;SDS011;27089;50.022;7.604;2023-07-31T03:02:18;4.47;;;2.00;;
41343;SDS011;27089;50.022;7.604;2023-07-31T03:04:45;5.63;;;2.67;;
41343;SDS011;27089;50.022;7.604;2023-07-31T03:07:12;5.63;;;2.33;;
41343;SDS011;27089;50.022;7.604;2023-07-31T03:09:40;5.20;;;2.40;;
41343;SDS011;27089;50.022;7.604;2023-07-31T03:12:08;5.03;;;2.20;;
41343;SDS011;27089;50.022;7.604;2023-07-31T03:14:35;4.93;;;2.60;;
41343;SDS011;27089;50.022;7.604;2023-07-31T03:17:03;3.77;;;2.40;;
41343;SDS011;27089;50.022;7.604;2023-07-31T03:19:31;4.27;;;2.30;;
41343;SDS011;27089;50.022;7.604;2023-07-31T03:21:58;3.20;;;2.20;;
41343;SDS011;27089;50.022;7.604;2023-07-31T03:24:25;5.47;;;2.57;;
41343;SDS011;27089;50.022;7.604;2023-07-31T03:26:53;3.83;;;2.00;;
41343;SDS011;27089;50.022;7.604;2023-07-31T03:29:20;5.70;;;2.23;;
41343;SDS011;27089;50.022;7.604;2023-07-31T03:31:47;6.90;;;2.67;;
41343;SDS011;27089;50.022;7.604;2023-07-31T03:34:14;3.47;;;2.40;;
41343;SDS011;27089;50.022;7.604;2023-07-31T03:36:41;3.20;;;2.40;;
41343;SDS011;27089;50.022;7.604;2023-07-31T03:39:08;4.00;;;2.10;;
41343;SDS011;27089;50.022;7.604;2023-07-31T03:41:35;4.30;;;2.03;;
41343;SDS011;27089;50.022;7.604;2023-07-31T03:44:03;5.33;;;2.30;;
41343;SDS011;27089;50.022;7.604;2023-07-31T03:46:30;5.93;;;2.67;;
41343;SDS011;27089;50.022;7.604;2023-07-31T03:48:57;4.73;;;2.63;;
41343;SDS011;27089;50.022;7.604;2023-07-31T03:51:24;6.40;;;2.40;;
41343;SDS011;27089;50.022;7.604;2023-07-31T03:53:51;5.63;;;2.40;;
41343;SDS011;27089;50.022;7.604;2023-07-31T03:56:21;7.33;;;2.67;;
41343;SDS011;27089;50.022;7.604;2023-07-31T03:58:48;5.73;;;2.97;;
41343;SDS011;27089;50.022;7.604;2023-07-31T04:01:17;6.53;;;2.80;;
41343;SDS011;27089;50.022;7.604;2023-07-31T04:03:44;4.87;;;2.47;;
41343;SDS011;27089;50.022;7.604;2023-07-31T04:06:11;4.50;;;2.30;;
41343;SDS011;27089;50.022;7.604;2023-07-31T04:08:38;7.80;;;2.70;;
41343;SDS011;27089;50.022;7.604;2023-07-31T04:11:05;8.23;;;2.87;;
41343;SDS011;27089;50.022;7.604;2023-07-31T04:13:32;9.20;;;3.37;;
41343;SDS011;27089;50.022;7.604;2023-07-31T04:15:59;5.33;;;2.67;;
41343;SDS011;27089;50.022;7.604;2023-07-31T04:18:27;4.97;;;2.67;;
41343;SDS011;27089;50.022;7.604;2023-07-31T04:20:56;5.93;;;2.67;;
41343;SDS011;27089;50.022;7.604;2023-07-31T04:23:23;4.63;;;2.63;;
41343;SDS011;27089;50.022;7.604;2023-07-31T04:25:50;8.77;;;2.60;;
41343;SDS011;27089;50.022;7.604;2023-07-31T04:28:17;5.13;;;2.87;;
41343;SDS011;27089;50.022;7.604;2023-07-31T04:30:44;6.80;;;2.93;;
41343;SDS011;27089;50.022;7.604;2023-07-31T04:33:11;6.43;;;2.40;;
41343;SDS011;27089;50.022;7.604;2023-07-31T04:35:39;8.00;;;2.80;;
41343;SDS011;27089;50.022;7.604;2023-07-31T04:38:06;6.63;;;2.73;;
41343;SDS011;27089;50.022;7.604;2023-07-31T04:40:33;4.73;;;2.60;;
41343;SDS011;27089;50.022;7.604;2023-07-31T04:43:00;9.60;;;3.17;;
41343;SDS011;27089;50.022;7.604;2023-07-31T04:45:27;8.83;;;3.50;;
41343;SDS011;27089;50.022;7.604;2023-07-31T04:47:54;5.50;;;2.70;;
41343;SDS011;27089;50.022;7.604;2023-07-31T04:50:21;6.60;;;2.70;;
41343;SDS011;27089;50.022;7.604;2023-07-31T04:52:49;5.53;;;3.17;;
41343;SDS011;27089;50.022;7.604;2023-07-31T04:55:16;5.60;;;2.70;;
41343;SDS011;27089;50.022;7.604;2023-07-31T04:57:43;9.03;;;3.10;;
41343;SDS011;27089;50.022;7.604;2023-07-31T05:00:10;5.50;;;2.80;;
41343;SDS011;27089;50.022;7.604;2023-07-31T05:02:38;7.57;;;3.10;;
41343;SDS011;27089;50.022;7.604;2023-07-31T05:05:05;10.07;;;2.63;;
41343;SDS011;27089;50.022;7.604;2023-07-31T05:07:32;4.83;;;2.83;;
41343;SDS011;27089;50.022;7.604;2023-07-31T05:10:00;6.43;;;2.77;;
41343;SDS011;27089;50.022;7.604;2023-07-31T05:12:27;8.17;;;2.73;;
41343;SDS011;27089;50.022;7.604;2023-07-31T05:14:54;5.73;;;2.87;;
41343;SDS011;27089;50.022;7.604;2023-07-31T05:17:21;7.77;;;2.83;;
41343;SDS011;27089;50.022;7.604;2023-07-31T05:19:48;9.57;;;2.87;;
41343;SDS011;27089;50.022;7.604;2023-07-31T05:22:15;6.13;;;2.67;;
41343;SDS011;27089;50.022;7.604;2023-07-31T05:24:42;7.20;;;2.40;;
41343;SDS011;27089;50.022;7.604;2023-07-31T05:27:10;4.80;;;2.57;;
41343;SDS011;27089;50.022;7.604;2023-07-31T05:29:40;8.07;;;3.00;;
41343;SDS011;27089;50.022;7.604;2023-07-31T05:32:07;7.17;;;3.03;;
41343;SDS011;27089;50.022;7.604;2023-07-31T05:34:34;5.67;;;2.83;;
41343;SDS011;27089;50.022;7.604;2023-07-31T05:37:01;6.57;;;2.80;;
41343;SDS011;27089;50.022;7.604;2023-07-31T05:39:28;7.03;;;2.77;;
41343;SDS011;27089;50.022;7.604;2023-07-31T05:41:55;7.27;;;3.13;;
41343;SDS011;27089;50.022;7.604;2023-07-31T05:44:23;7.37;;;3.23;;
41343;SDS011;27089;50.022;7.604;2023-07-31T05:46:50;8.33;;;2.93;;
41343;SDS011;27089;50.022;7.604;2023-07-31T05:49:17;5.47;;;2.80;;
41343;SDS011;27089;50.022;7.604;2023-07-31T05:51:44;4.97;;;2.73;;
41343;SDS011;27089;50.022;7.604;2023-07-31T05:54:11;4.70;;;2.50;;
41343;SDS011;27089;50.022;7.604;2023-07-31T05:56:38;6.27;;;2.90;;
41343;SDS011;27089;50.022;7.604;2023-07-31T05:59:05;8.70;;;3.40;;
41343;SDS011;27089;50.022;7.604;2023-07-31T06:01:33;8.27;;;3.13;;
41343;SDS011;27089;50.022;7.604;2023-07-31T06:04:00;6.93;;;2.80;;
41343;SDS011;27089;50.022;7.604;2023-07-31T06:06:28;7.03;;;2.70;;
41343;SDS011;27089;50.022;7.604;2023-07-31T06:08:55;9.33;;;3.13;;
41343;SDS011;27089;50.022;7.604;2023-07-31T06:11:22;6.33;;;2.67;;
41343;SDS011;27089;50.022;7.604;2023-07-31T06:13:49;7.87;;;2.80;;
41343;SDS011;27089;50.022;7.604;2023-07-31T06:16:16;7.20;;;2.70;;
41343;SDS011;27089;50.022;7.604;2023-07-31T06:18:44;7.53;;;2.40;;
41343;SDS011;27089;50.022;7.604;2023-07-31T06:21:11;6.10;;;2.73;;
41343;SDS011;27089;50.022;7.604;2023-07-31T06:23:38;6.07;;;2.87;;
41343;SDS011;27089;50.022;7.604;2023-07-31T06:26:05;5.23;;;2.50;;
41343;SDS011;27089;50.022;7.604;2023-07-31T06:28:32;4.90;;;2.40;;
41343;SDS011;27089;50.022;7.604;2023-07-31T06:30:59;6.40;;;2.85;;
41343;SDS011;27089;50.022;7.604;2023-07-31T06:33:27;6.43;;;2.80;;
41343;SDS011;27089;50.022;7.604;2023-07-31T06:35:55;6.33;;;2.60;;
41343;SDS011;27089;50.022;7.604;2023-07-31T06:38:23;4.00;;;2.47;;
41343;SDS011;27089;50.022;7.604;2023-07-31T06:40:52;5.97;;;2.40;;
41343;SDS011;27089;50.022;7.604;2023-07-31T06:43:19;7.87;;;3.07;;
41343;SDS011;27089;50.022;7.604;2023-07-31T06:45:46;5.13;;;2.50;;
41343;SDS011;27089;50.022;7.604;2023-07-31T06:48:16;5.33;;;2.50;;
41343;SDS011;27089;50.022;7.604;2023-07-31T06:50:43;5.40;;;2.63;;
41343;SDS011;27089;50.022;7.604;2023-07-31T06:53:11;5.00;;;2.53;;
41343;SDS011;27089;50.022;7.604;2023-07-31T06:55:38;8.50;;;2.95;;
41343;SDS011;27089;50.022;7.604;2023-07-31T06:58:05;7.00;;;2.73;;
41343;SDS011;27089;50.022;7.604;2023-07-31T07:00:32;4.57;;;2.58;;
41343;SDS011;27089;50.022;7.604;2023-07-31T07:02:59;5.30;;;2.60;;
41343;SDS011;27089;50.022;7.604;2023-07-31T07:05:26;4.97;;;2.63;;
41343;SDS011;27089;50.022;7.604;2023-07-31T07:07:53;5.45;;;2.53;;
41343;SDS011;27089;50.022;7.604;2023-07-31T07:10:22;5.05;;;2.35;;
41343;SDS011;27089;50.022;7.604;2023-07-31T07:12:49;4.45;;;2.72;;
41343;SDS011;27089;50.022;7.604;2023-07-31T07:15:16;6.03;;;2.60;;
41343;SDS011;27089;50.022;7.604;2023-07-31T07:17:43;5.90;;;2.50;;
41343;SDS011;27089;50.022;7.604;2023-07-31T07:20:10;4.45;;;2.25;;
41343;SDS011;27089;50.022;7.604;2023-07-31T07:22:37;5.93;;;3.00;;
41343;SDS011;27089;50.022;7.604;2023-07-31T07:25:05;4.88;;;2.50;;
41343;SDS011;27089;50.022;7.604;2023-07-31T07:27:34;5.68;;;2.40;;
41343;SDS011;27089;50.022;7.604;2023-07-31T07:30:01;4.63;;;2.20;;
41343;SDS011;27089;50.022;7.604;2023-07-31T07:32:28;4.53;;;2.47;;
41343;SDS011;27089;50.022;7.604;2023-07-31T07:34:55;5.13;;;2.30;;
41343;SDS011;27089;50.022;7.604;2023-07-31T07:37:22;3.70;;;2.00;;
41343;SDS011;27089;50.022;7.604;2023-07-31T07:39:49;5.50;;;2.05;;
41343;SDS011;27089;50.022;7.604;2023-07-31T07:42:16;4.70;;;2.10;;
41343;SDS011;27089;50.022;7.604;2023-07-31T07:44:45;2.88;;;1.95;;
41343;SDS011;27089;50.022;7.604;2023-07-31T07:47:12;5.05;;;2.17;;
41343;SDS011;27089;50.022;7.604;2023-07-31T07:49:39;6.97;;;2.60;;
41343;SDS011;27089;50.022;7.604;2023-07-31T07:52:06;4.13;;;2.20;;
41343;SDS011;27089;50.022;7.604;2023-07-31T07:54:33;5.38;;;2.50;;
41343;SDS011;27089;50.022;7.604;2023-07-31T07:57:00;4.32;;;2.38;;
41343;SDS011;27089;50.022;7.604;2023-07-31T07:59:28;4.75;;;2.53;;
41343;SDS011;27089;50.022;7.604;2023-07-31T08:01:56;4.72;;;2.40;;
41343;SDS011;27089;50.022;7.604;2023-07-31T08:04:23;4.90;;;2.58;;
41343;SDS011;27089;50.022;7.604;2023-07-31T08:06:50;5.30;;;2.30;;
41343;SDS011;27089;50.022;7.604;2023-07-31T08:09:17;4.63;;;2.20;;
41343;SDS011;27089;50.022;7.604;2023-07-31T08:11:44;4.55;;;2.53;;
41343;SDS011;27089;50.022;7.604;2023-07-31T08:14:11;3.88;;;2.22;;
41343;SDS011;27089;50.022;7.604;2023-07-31T08:16:38;6.03;;;2.60;;
41343;SDS011;27089;50.022;7.604;2023-07-31T08:19:06;5.55;;;3.05;;
41343;SDS011;27089;50.022;7.604;2023-07-31T08:21:33;4.72;;;2.50;;
41343;SDS011;27089;50.022;7.604;2023-07-31T08:24:00;5.32;;;2.42;;
41343;SDS011;27089;50.022;7.604;2023-07-31T08:26:27;3.63;;;2.42;;
41343;SDS011;27089;50.022;7.604;2023-07-31T08:28:54;5.38;;;2.30;;
41343;SDS011;27089;50.022;7.604;2023-07-31T08:31:22;4.75;;;2.50;;
41343;SDS011;27089;50.022;7.604;2023-07-31T08:33:49;8.40;;;2.38;;
41343;SDS011;27089;50.022;7.604;2023-07-31T08:36:17;5.50;;;2.55;;
41343;SDS011;27089;50.022;7.604;2023-07-31T08:38:45;5.13;;;2.42;;
41343;SDS011;27089;50.022;7.604;2023-07-31T08:41:12;4.63;;;2.75;;
41343;SDS011;27089;50.022;7.604;2023-07-31T08:43:39;7.35;;;2.85;;
41343;SDS011;27089;50.022;7.604;2023-07-31T08:46:07;5.78;;;2.50;;
41343;SDS011;27089;50.022;7.604;2023-07-31T08:48:34;6.10;;;2.45;;
41343;SDS011;27089;50.022;7.604;2023-07-31T08:51:03;4.93;;;2.30;;
41343;SDS011;27089;50.022;7.604;2023-07-31T08:53:31;5.28;;;2.70;;
41343;SDS011;27089;50.022;7.604;2023-07-31T08:55:58;5.68;;;2.80;;
41343;SDS011;27089;50.022;7.604;2023-07-31T08:58:26;6.85;;;2.65;;
41343;SDS011;27089;50.022;7.604;2023-07-31T09:00:56;7.15;;;2.63;;
41343;SDS011;27089;50.022;7.604;2023-07-31T09:03:25;7.88;;;2.53;;
41343;SDS011;27089;50.022;7.604;2023-07-31T09:05:52;4.05;;;2.42;;
41343;SDS011;27089;50.022;7.604;2023-07-31T09:08:21;5.68;;;2.70;;
41343;SDS011;27089;50.022;7.604;2023-07-31T09:10:50;5.20;;;2.65;;
41343;SDS011;27089;50.022;7.604;2023-07-31T09:13:17;4.13;;;2.55;;
41343;SDS011;27089;50.022;7.604;2023-07-31T09:15:45;4.70;;;2.63;;
41343;SDS011;27089;50.022;7.604;2023-07-31T09:18:12;5.75;;;2.45;;
41343;SDS011;27089;50.022;7.604;2023-07-31T09:20:43;5.63;;;2.88;;
41343;SDS011;27089;50.022;7.604;2023-07-31T09:23:11;4.38;;;2.63;;
41343;SDS011;27089;50.022;7.604;2023-07-31T09:25:39;5.03;;;2.75;;
41343;SDS011;27089;50.022;7.604;2023-07-31T09:28:11;6.32;;;3.15;;
41343;SDS011;27089;50.022;7.604;2023-07-31T09:30:45;5.00;;;2.90;;
41343;SDS011;27089;50.022;7.604;2023-07-31T09:33:14;4.82;;;2.30;;
41343;SDS011;27089;50.022;7.604;2023-07-31T09:35:41;4.65;;;2.67;;
41343;SDS011;27089;50.022;7.604;2023-07-31T09:38:09;4.85;;;2.55;;
41343;SDS011;27089;50.022;7.604;2023-07-31T09:40:38;4.80;;;2.63;;
41343;SDS011;27089;50.022;7.604;2023-07-31T09:43:07;4.72;;;2.70;;
41343;SDS011;27089;50.022;7.604;2023-07-31T09:45:37;7.00;;;3.00;;
41343;SDS011;27089;50.022;7.604;2023-07-31T09:48:06;5.65;;;2.60;;
41343;SDS011;27089;50.022;7.604;2023-07-31T09:50:36;3.75;;;2.53;;
41343;SDS011;27089;50.022;7.604;2023-07-31T09:53:04;4.90;;;2.50;;
41343;SDS011;27089;50.022;7.604;2023-07-31T09:55:31;3.58;;;2.53;;
41343;SDS011;27089;50.022;7.604;2023-07-31T09:57:58;3.78;;;2.67;;
41343;SDS011;27089;50.022;7.604;2023-07-31T10:00:29;3.78;;;2.50;;
41343;SDS011;27089;50.022;7.604;2023-07-31T10:02:59;6.43;;;2.53;;
41343;SDS011;27089;50.022;7.604;2023-07-31T10:05:28;4.97;;;2.50;;
41343;SDS011;27089;50.022;7.604;2023-07-31T10:07:59;6.25;;;2.65;;
41343;SDS011;27089;50.022;7.604;2023-07-31T10:10:26;5.15;;;2.60;;
41343;SDS011;27089;50.022;7.604;2023-07-31T10:12:56;3.15;;;2.33;;
41343;SDS011;27089;50.022;7.604;2023-07-31T10:15:24;4.93;;;2.63;;
41343;SDS011;27089;50.022;7.604;2023-07-31T10:17:52;2.92;;;2.10;;
41343;SDS011;27089;50.022;7.604;2023-07-31T10:20:23;6.07;;;2.53;;
41343;SDS011;27089;50.022;7.604;2023-07-31T10:22:50;3.83;;;2.50;;
41343;SDS011;27089;50.022;7.604;2023-07-31T10:25:18;3.28;;;2.00;;
41343;SDS011;27089;50.022;7.604;2023-07-31T10:27:46;4.57;;;2.97;;
41343;SDS011;27089;50.022;7.604;2023-07-31T10:30:14;4.10;;;2.38;;
41343;SDS011;27089;50.022;7.604;2023-07-31T10:32:44;6.32;;;2.45;;
41343;SDS011;27089;50.022;7.604;2023-07-31T10:35:11;5.18;;;2.58;;
41343;SDS011;27089;50.022;7.604;2023-07-31T10:37:42;4.05;;;2.55;;
41343;SDS011;27089;50.022;7.604;2023-07-31T10:40:10;4.13;;;2.45;;
41343;SDS011;27089;50.022;7.604;2023-07-31T10:42:45;4.85;;;2.40;;
41343;SDS011;27089;50.022;7.604;2023-07-31T10:45:14;3.40;;;2.00;;
41343;SDS011;27089;50.022;7.604;2023-07-31T10:47:51;4.93;;;2.10;;
41343;SDS011;27089;50.022;7.604;2023-07-31T10:50:25;2.45;;;2.00;;
41343;SDS011;27089;50.022;7.604;2023-07-31T10:52:54;3.40;;;2.13;;
41343;SDS011;27089;50.022;7.604;2023-07-31T10:55:23;5.30;;;2.10;;
41343;SDS011;27089;50.022;7.604;2023-07-31T10:57:53;5.18;;;2.47;;
41343;SDS011;27089;50.022;7.604;2023-07-31T11:00:21;4.20;;;2.13;;
41343;SDS011;27089;50.022;7.604;2023-07-31T11:03:00;3.00;;;2.20;;
41343;SDS011;27089;50.022;7.604;2023-07-31T11:05:45;5.43;;;2.22;;
41343;SDS011;27089;50.022;7.604;2023-07-31T11:08:20;2.97;;;2.10;;
41343;SDS011;27089;50.022;7.604;2023-07-31T11:10:49;4.13;;;2.20;;
41343;SDS011;27089;50.022;7.604;2023-07-31T11:13:17;3.72;;;2.03;;
41343;SDS011;27089;50.022;7.604;2023-07-31T11:15:44;3.97;;;2.25;;
41343;SDS011;27089;50.022;7.604;2023-07-31T11:18:11;2.15;;;1.70;;
41343;SDS011;27089;50.022;7.604;2023-07-31T11:20:38;4.70;;;1.98;;
41343;SDS011;27089;50.022;7.604;2023-07-31T11:23:07;3.38;;;1.90;;
41343;SDS011;27089;50.022;7.604;2023-07-31T11:25:37;4.00;;;2.50;;
41343;SDS011;27089;50.022;7.604;2023-07-31T11:28:07;3.85;;;2.13;;
41343;SDS011;27089;50.022;7.604;2023-07-31T11:30:35;6.40;;;2.17;;
41343;SDS011;27089;50.022;7.604;2023-07-31T11:33:02;5.03;;;2.20;;
41343;SDS011;27089;50.022;7.604;2023-07-31T11:35:31;5.72;;;2.22;;
41343;SDS011;27089;50.022;7.604;2023-07-31T11:37:58;4.40;;;1.75;;
41343;SDS011;27089;50.022;7.604;2023-07-31T11:40:26;5.70;;;1.98;;
41343;SDS011;27089;50.022;7.604;2023-07-31T11:42:56;3.35;;;2.40;;
41343;SDS011;27089;50.022;7.604;2023-07-31T11:45:26;3.67;;;2.60;;
41343;SDS011;27089;50.022;7.604;2023-07-31T11:47:54;3.53;;;2.10;;
41343;SDS011;27089;50.022;7.604;2023-07-31T11:50:22;5.60;;;2.42;;
41343;SDS011;27089;50.022;7.604;2023-07-31T11:52:51;6.47;;;2.38;;
41343;SDS011;27089;50.022;7.604;2023-07-31T11:55:22;4.50;;;2.13;;
41343;SDS011;27089;50.022;7.604;2023-07-31T11:57:50;7.75;;;2.10;;
41343;SDS011;27089;50.022;7.604;2023-07-31T12:00:19;4.68;;;2.05;;
41343;SDS011;27089;50.022;7.604;2023-07-31T12:02:46;4.13;;;1.80;;
41343;SDS011;27089;50.022;7.604;2023-07-31T12:05:13;4.15;;;2.08;;
41343;SDS011;27089;50.022;7.604;2023-07-31T12:07:44;5.13;;;2.22;;
41343;SDS011;27089;50.022;7.604;2023-07-31T12:10:22;4.78;;;1.90;;
41343;SDS011;27089;50.022;7.604;2023-07-31T12:12:55;3.38;;;1.70;;
41343;SDS011;27089;50.022;7.604;2023-07-31T12:15:31;2.30;;;1.58;;
41343;SDS011;27089;50.022;7.604;2023-07-31T12:17:59;3.72;;;1.95;;
41343;SDS011;27089;50.022;7.604;2023-07-31T12:20:30;1.77;;;1.42;;
41343;SDS011;27089;50.022;7.604;2023-07-31T12:22:58;1.92;;;1.45;;
41343;SDS011;27089;50.022;7.604;2023-07-31T12:25:28;3.30;;;1.80;;
41343;SDS011;27089;50.022;7.604;2023-07-31T12:28:03;2.72;;;1.80;;
41343;SDS011;27089;50.022;7.604;2023-07-31T12:30:38;4.47;;;3.40;;
41343;SDS011;27089;50.022;7.604;2023-07-31T12:33:07;3.88;;;1.90;;
41343;SDS011;27089;50.022;7.604;2023-07-31T12:35:41;2.53;;;1.85;;
41343;SDS011;27089;50.022;7.604;2023-07-31T12:38:10;4.97;;;1.83;;
41343;SDS011;27089;50.022;7.604;2023-07-31T12:40:38;4.90;;;1.98;;
41343;SDS011;27089;50.022;7.604;2023-07-31T12:43:06;3.03;;;1.40;;
41343;SDS011;27089;50.022;7.604;2023-07-31T12:45:34;2.10;;;1.90;;
41343;SDS011;27089;50.022;7.604;2023-07-31T12:48:03;2.58;;;1.60;;
41343;SDS011;27089;50.022;7.604;2023-07-31T12:50:30;2.45;;;1.65;;
41343;SDS011;27089;50.022;7.604;2023-07-31T12:52:57;1.45;;;1.20;;
41343;SDS011;27089;50.022;7.604;2023-07-31T12:55:24;2.20;;;1.60;;
41343;SDS011;27089;50.022;7.604;2023-07-31T12:57:51;2.70;;;1.95;;
41343;SDS011;27089;50.022;7.604;2023-07-31T13:00:18;3.22;;;1.80;;
41343;SDS011;27089;50.022;7.604;2023-07-31T13:02:45;2.97;;;1.88;;
41343;SDS011;27089;50.022;7.604;2023-07-31T13:05:13;3.65;;;1.73;;
41343;SDS011;27089;50.022;7.604;2023-07-31T13:07:41;4.05;;;1.65;;
41343;SDS011;27089;50.022;7.604;2023-07-31T13:10:08;5.97;;;2.00;;
41343;SDS011;27089;50.022;7.604;2023-07-31T13:12:35;2.92;;;1.90;;
41343;SDS011;27089;50.022;7.604;2023-07-31T13:15:02;2.90;;;1.63;;
41343;SDS011;27089;50.022;7.604;2023-07-31T13:17:30;2.95;;;1.80;;
41343;SDS011;27089;50.022;7.604;2023-07-31T13:19:57;3.55;;;1.55;;
41343;SDS011;27089;50.022;7.604;2023-07-31T13:22:25;3.33;;;1.40;;
41343;SDS011;27089;50.022;7.604;2023-07-31T13:24:52;2.92;;;1.58;;
41343;SDS011;27089;50.022;7.604;2023-07-31T13:27:19;3.40;;;1.73;;
41343;SDS011;27089;50.022;7.604;2023-07-31T13:29:47;3.00;;;1.70;;
41343;SDS011;27089;50.022;7.604;2023-07-31T13:32:14;4.93;;;1.65;;
41343;SDS011;27089;50.022;7.604;2023-07-31T13:34:41;4.35;;;2.17;;
41343;SDS011;27089;50.022;7.604;2023-07-31T13:37:08;4.30;;;1.77;;
41343;SDS011;27089;50.022;7.604;2023-07-31T13:39:37;3.58;;;1.70;;
41343;SDS011;27089;50.022;7.604;2023-07-31T13:42:04;7.25;;;1.92;;
41343;SDS011;27089;50.022;7.604;2023-07-31T13:44:33;8.25;;;1.92;;
41343;SDS011;27089;50.022;7.604;2023-07-31T13:47:00;2.70;;;1.52;;
41343;SDS011;27089;50.022;7.604;2023-07-31T13:49:27;3.35;;;1.83;;
41343;SDS011;27089;50.022;7.604;2023-07-31T13:51:54;3.67;;;1.70;;
41343;SDS011;27089;50.022;7.604;2023-07-31T13:54:21;3.50;;;1.48;;
41343;SDS011;27089;50.022;7.604;2023-07-31T13:56:50;4.15;;;1.58;;
41343;SDS011;27089;50.022;7.604;2023-07-31T13:59:17;2.20;;;1.70;;
41343;SDS011;27089;50.022;7.604;2023-07-31T14:01:44;2.97;;;1.60;;
41343;SDS011;27089;50.022;7.604;2023-07-31T14:04:12;3.30;;;1.50;;
41343;SDS011;27089;50.022;7.604;2023-07-31T14:06:39;3.50;;;1.77;;
41343;SDS011;27089;50.022;7.604;2023-07-31T14:09:06;2.78;;;1.67;;
41343;SDS011;27089;50.022;7.604;2023-07-31T14:11:33;2.65;;;1.27;;
41343;SDS011;27089;50.022;7.604;2023-07-31T14:14:01;3.47;;;1.63;;
41343;SDS011;27089;50.022;7.604;2023-07-31T14:16:29;3.50;;;1.55;;
41343;SDS011;27089;50.022;7.604;2023-07-31T14:18:56;2.20;;;1.38;;
41343;SDS011;27089;50.022;7.604;2023-07-31T14:21:24;3.20;;;1.30;;
41343;SDS011;27089;50.022;7.604;2023-07-31T14:23:51;4.75;;;1.55;;
41343;SDS011;27089;50.022;7.604;2023-07-31T14:26:18;1.95;;;1.40;;
41343;SDS011;27089;50.022;7.604;2023-07-31T14:28:45;3.22;;;1.40;;
41343;SDS011;27089;50.022;7.604;2023-07-31T14:31:13;1.77;;;1.20;;
41343;SDS011;27089;50.022;7.604;2023-07-31T14:33:41;2.28;;;1.20;;
41343;SDS011;27089;50.022;7.604;2023-07-31T14:36:08;1.27;;;1.10;;
41343;SDS011;27089;50.022;7.604;2023-07-31T14:38:35;2.58;;;1.67;;
41343;SDS011;27089;50.022;7.604;2023-07-31T14:41:01;1.35;;;1.08;;
41343;SDS011;27089;50.022;7.604;2023-07-31T14:43:29;2.22;;;1.10;;
41343;SDS011;27089;50.022;7.604;2023-07-31T14:45:57;1.10;;;1.00;;
41343;SDS011;27089;50.022;7.604;2023-07-31T14:48:26;2.30;;;1.35;;
41343;SDS011;27089;50.022;7.604;2023-07-31T14:50:54;2.35;;;1.33;;
41343;SDS011;27089;50.022;7.604;2023-07-31T14:53:21;1.38;;;1.15;;